»·PEaware :: SWA3684 KAUS-KLBB

SWA3684 :: KAUS-KLBB

FLIGHT INFORMATION

Flight Status: Arrived
Operator:
Southwest Airlines
More flights by this operator :: More flights under this callsign
Pilot: Drew L. (13237)
Aircraft: BOEING 737-800
(B738)
More flights by this aircraft type
Origin: KAUS Austin Bergstrom Intl
United States
Destination: KLBB Lubbock Intl
United States
More flights between these airports :: More routes between these airports
Route: ELOEL2 ELOEL ABI V385 LBB
File this flight plan on PilotEdge
Remarks: PBN / A1B1C1D1S1S2 DOF / 180429 REG / N806SB EET / KZFW0020 OPR / SWA PER / C RMK / TCAS SIMBRIEF
Altitude:
(Current/Filed)
34,000ft
Speed:
(Current/Filed)
453kts
Departed: 28-Apr-18 09:48 PM
Arrived: 28-Apr-18 10:43 PM
Distance/Time
Traveled:
296nm/0:55
Distance/Time
To Go:
Arrived

Flight Plot

Page will automatically refresh every two minutes.

Flight plan parsing failed; only flown route is shown


Map Options




Map Legend


Flown Route
Filed Route
Departure Airport
Arrival Airport
Navaid (VOR, NDB)
Fix

Horizontal Profiles

Position Reports

Time Latitude Longitude Heading Altitude Ground
Speed
28-Apr-18 21:25 30.202735 -97.671112 154 549ft 0kts
28-Apr-18 21:26 30.202735 -97.671112 154 549ft 0kts
28-Apr-18 21:27 30.202735 -97.671112 154 549ft 0kts
28-Apr-18 21:28 30.202735 -97.671112 154 549ft 0kts
28-Apr-18 21:29 30.202735 -97.671112 154 549ft 0kts
28-Apr-18 21:30 30.202735 -97.671112 154 549ft 0kts
28-Apr-18 21:31 30.202735 -97.671112 154 549ft 0kts
28-Apr-18 21:32 30.202735 -97.671112 154 549ft 0kts
28-Apr-18 21:33 30.202735 -97.671112 154 549ft 0kts
28-Apr-18 21:34 30.202735 -97.671112 154 549ft 0kts
28-Apr-18 21:35 30.202735 -97.671112 154 549ft 0kts
28-Apr-18 21:36 30.202735 -97.671112 154 549ft 0kts
28-Apr-18 21:37 30.202735 -97.671112 154 549ft 0kts
28-Apr-18 21:38 30.202735 -97.671112 154 549ft 0kts
28-Apr-18 21:39 30.203123 -97.671293 194 549ft 2kts
28-Apr-18 21:40 30.203276 -97.670922 269 549ft 0kts
28-Apr-18 21:41 30.203278 -97.670782 269 549ft 0kts
28-Apr-18 21:42 30.203278 -97.670782 269 549ft 0kts
28-Apr-18 21:43 30.202467 -97.672060 178 549ft 16kts
28-Apr-18 21:44 30.199248 -97.669766 154 549ft 14kts
28-Apr-18 21:45 30.199197 -97.660359 85 549ft 20kts
28-Apr-18 21:46 30.203741 -97.659245 84 549ft 17kts
28-Apr-18 21:47 30.194178 -97.657611 178 550ft 140kts
28-Apr-18 21:48 30.142505 -97.662893 220 3010ft 225kts
28-Apr-18 21:49 30.150323 -97.733893 327 5855ft 258kts
28-Apr-18 21:51 30.235959 -97.758476 349 9407ft 290kts
28-Apr-18 21:51 30.304013 -97.774822 349 11720ft 324kts
28-Apr-18 21:52 30.393559 -97.796436 350 15538ft 338kts
28-Apr-18 21:53 30.485830 -97.818741 350 19513ft 345kts
28-Apr-18 21:54 30.577535 -97.849947 326 22910ft 358kts
28-Apr-18 21:55 30.652302 -97.927775 315 25949ft 367kts
28-Apr-18 21:56 30.722561 -98.014629 313 28553ft 375kts
28-Apr-18 21:57 30.794101 -98.103427 311 31076ft 376kts
28-Apr-18 21:58 30.864710 -98.191219 309 33464ft 369kts
28-Apr-18 21:59 30.935087 -98.279094 309 34140ft 383kts
28-Apr-18 22:00 31.010389 -98.373482 310 34135ft 413kts
28-Apr-18 22:01 31.091056 -98.474773 310 34133ft 437kts
28-Apr-18 22:02 31.137772 -98.533482 310 34138ft 434kts
28-Apr-18 22:03 31.213778 -98.629201 310 34148ft 434kts
28-Apr-18 22:04 31.268129 -98.697831 310 34144ft 433kts
28-Apr-18 22:05 31.324535 -98.769226 310 34135ft 433kts
28-Apr-18 22:06 31.405412 -98.871823 310 34130ft 434kts
28-Apr-18 22:07 31.486691 -98.975193 310 34129ft 433kts
28-Apr-18 22:08 31.568161 -99.079075 310 34128ft 433kts
28-Apr-18 22:09 31.649430 -99.182984 310 34128ft 433kts
28-Apr-18 22:10 31.730775 -99.287274 310 34127ft 434kts
28-Apr-18 22:11 31.811753 -99.391345 310 34123ft 433kts
28-Apr-18 22:12 31.893008 -99.496070 310 34125ft 434kts
28-Apr-18 22:13 31.973984 -99.600710 310 34123ft 433kts
28-Apr-18 22:14 32.053915 -99.704336 309 34112ft 433kts
28-Apr-18 22:15 32.134661 -99.809395 309 34097ft 433kts
28-Apr-18 22:16 32.215197 -99.914458 309 34091ft 433kts
28-Apr-18 22:17 32.295816 -100.019925 309 34092ft 434kts
28-Apr-18 22:18 32.376330 -100.125517 309 34098ft 433kts
28-Apr-18 22:19 32.456656 -100.231190 309 34086ft 435kts
28-Apr-18 22:20 32.538657 -100.339321 308 32033ft 440kts
28-Apr-18 22:21 32.621857 -100.449422 308 30037ft 455kts
28-Apr-18 22:22 32.704987 -100.559693 308 28015ft 446kts
28-Apr-18 22:23 32.786693 -100.668446 308 26009ft 440kts
28-Apr-18 22:24 32.867324 -100.776111 308 23525ft 430kts
28-Apr-18 22:25 32.945203 -100.880376 309 20935ft 412kts
28-Apr-18 22:26 33.018513 -100.978801 309 18598ft 389kts
28-Apr-18 22:27 33.089006 -101.073718 309 16401ft 378kts
28-Apr-18 22:28 33.157463 -101.166113 309 14285ft 366kts
28-Apr-18 22:29 33.219501 -101.249954 309 13542ft 310kts
28-Apr-18 22:30 33.274071 -101.323930 309 12386ft 291kts
28-Apr-18 22:31 33.340489 -101.369443 345 11269ft 262kts
28-Apr-18 22:32 33.410078 -101.387846 345 10303ft 246kts
28-Apr-18 22:33 33.473161 -101.404791 342 9359ft 229kts
28-Apr-18 22:34 33.527683 -101.442254 325 8208ft 224kts
28-Apr-18 22:35 33.579857 -101.482296 325 7310ft 222kts
28-Apr-18 22:36 33.628244 -101.525988 307 6667ft 218kts
28-Apr-18 22:37 33.662617 -101.583618 280 6044ft 202kts
28-Apr-18 22:38 33.663166 -101.646842 266 5611ft 177kts
28-Apr-18 22:39 33.662728 -101.704614 266 4933ft 160kts
28-Apr-18 22:40 33.662516 -101.754866 266 4115ft 149kts
28-Apr-18 22:41 33.662370 -101.804947 267 3290ft 132kts
28-Apr-18 22:42 33.661028 -101.822722 178 3290ft 17kts
28-Apr-18 22:43 33.657509 -101.822561 149 3290ft 0kts
28-Apr-18 22:44 33.657510 -101.822561 149 3290ft 0kts
28-Apr-18 22:45 33.657510 -101.822561 149 3290ft 0kts

Navigation Log

Ident Type
Flight plan parsing failed, navigation log unavailable